Radium, Texas
Current Conditions -  °F | °C
As of 12:58 PM on Thursday 23 Oct 2014 (Local Time) from KDYS Reporting Station
Few Clouds Few Clouds  
Wind Chill: 78°   Ceiling: Unl
Heat Index: 79°   Visibility: 10mi
Dew Point: 60°   Wind: 10mph
Humidity: 53%   Direction: 220°SW
Pressure: 30.13"   Gusts: NA
Location:  32.755°N, 99.9177°W
Report Text: KDYS 231758Z AUTO 22009KT 10SM FEW040 26/15 A3013 RMK AO2 SLP170 T02560153 10258 20151 58006
Loading
Personal Weather Stations






























Interactive Weather Map
Tropical Storm Tracking
New forecast layout! Learn more

10-Day Weather Forecast

Advertisements
Track Severe Weather on mobile